Grubbs, Arkansas
Current Conditions -  °F | °C
As of 12:56 PM on Saturday 25 Oct 2014 (Local Time) from KM19 Reporting Station
Clear Clear  
Wind Chill: 84°   Ceiling: Unl
Heat Index: 85°   Visibility: 10mi
Dew Point: 64°   Wind: 8mph
Humidity: 51%   Direction: 320°NW
Pressure: 30.05"   Gusts: NA
Location:  35.65°N, 91.07°W
Report Text: KM19 251756Z AUTO 32007KT 10SM CLR 29/18 A3005 RMK AO2 58014 T02880177 10294 20127 SLP175
Loading
Personal Weather Stations






























Interactive Weather Map
Tropical Storm Tracking
New forecast layout! Learn more

10-Day Weather Forecast

Advertisements
Track Severe Weather on mobile